This is the latest recevied weather packets stored in our database for station/object EA3FHP. If no packets are shown the sender has not sent any weather packets the latest 10 day(s).
| Time | Temp. | Humidity | Pressure | Rain* | Wind** | Luminosity | Snow |
|---|---|---|---|---|---|---|---|
| 1777579803 | 15° C | 74% | 1020.1 hPa | 0 mm | - | - | - |
| 1777579203 | 15.56° C | 75% | 1020.4 hPa | 0 mm | - | - | - |
| 1777578603 | 16.11° C | 73% | 1020.1 hPa | 0 mm | - | - | - |
| 1777578004 | 16.11° C | 73% | 1020 hPa | 0 mm | - | - | - |
| 1777577403 | 15.56° C | 74% | 1019.9 hPa | 0 mm | - | - | - |
| 1777576803 | 15.56° C | 77% | 1019.9 hPa | 0 mm | - | - | - |
| 1777576203 | 15.56° C | 76% | 1019.7 hPa | 0 mm | - | - | - |
| 1777575603 | 16.11° C | 75% | 1019.5 hPa | 0 mm | - | - | - |
| 1777575003 | 16.67° C | 75% | 1019.6 hPa | 0 mm | - | - | - |
| 1777574403 | 16.67° C | 73% | 1019.1 hPa | 0 mm | - | - | - |
| 1777573803 | 16.67° C | 74% | 1019.3 hPa | 0 mm | - | - | - |
| 1777573203 | 17.22° C | 74% | 1019.3 hPa | 0 mm | - | - | - |
| 1777572603 | 18.33° C | 72% | 1019 hPa | 0 mm | - | - | - |
| 1777572005 | 18.89° C | 70% | 1018.6 hPa | 0 mm | - | - | - |
| 1777571403 | 19.44° C | 67% | 1018.5 hPa | 0 mm | - | - | - |
| 1777570803 | 20.56° C | 66% | 1018.5 hPa | 0 mm | - | - | - |
| 1777570203 | 21.11° C | 63% | 1018.3 hPa | 0 mm | - | - | - |
| 1777569603 | 21.11° C | 65% | 1018.3 hPa | 0 mm | - | - | - |
| 1777569003 | 21.67° C | 64% | 1018.2 hPa | 0 mm | - | - | - |
| 1777568403 | 21.67° C | 64% | 1018.3 hPa | 0 mm | - | - | - |
| 1777567804 | 22.22° C | 62% | 1018.3 hPa | 0 mm | - | - | - |
| 1777567203 | 22.78° C | 62% | 1018.4 hPa | 0 mm | - | - | - |
| 1777566603 | 22.78° C | 63% | 1018.4 hPa | 0 mm | - | - | - |
| 1777566003 | 22.78° C | 62% | 1018.4 hPa | 0 mm | - | - | - |
| 1777565403 | 22.22° C | 60% | 1018.5 hPa | 0 mm | - | - | - |
* Rain latest hour (hover to see other rain measurements)
** Current wind speed in m/s (hover to see current wind gust speed)